KDOV

Dover AFB Airport

Dover, Delaware, USA
METAR KDOV 170556Z AUTO 21004KT 10SM CLR 00/M01 A3020 RMK AO2 SLP230 T00011009 10020 21003 50005 $
Observed Flight Rules
Dec-17 @ 05:56 UTC (26 minutes ago) Visual Flight Rules
Wind Visibility Clouds
210° at 4 knots 10 miles
  • Clear skies
Temperatures Readings
Current 0°C / 32°F
Dewpoint -1°C / 30°F
Humidity 93%
Altimeter 30.2" Hg
Pressure 1023 hPa
Elevation 9
METAR KDOV 170556Z AUTO 21004KT 10SM CLR 00/M01 A3020 RMK AO2 SLP230 T00011009 10020 21003 50005 $
Observed Flight Rules
Dec-17 @ 05:56 UTC
(26 minutes ago)
VFR
Wind Visibility
210° at 4 knots 10 miles
Clouds
  • Clear skies
Temperature Dewpoint
0°C / 32°F -1°C / 30°F
Humidity Altimeter Pressure
93% 30.2" Hg 1023 hPa